OIFK  Kashan  Airport

Iran

Add Bookmark
ICAO OIFK
Type Airport
Status Operational
Latitude
33° 53' 43" N
33.895302
Longitude
51° 34' 37" E
51.577000
Local (DST + 5) UTC (GMT + 4)
Feb 10, 2016 01:56 Feb 9, 2016 22:26
Sunrise-Sunset Local UTC
Begin Civil Twilight 06:26 02:56
Sunrise 06:51 03:21
Sunset 05:43 14:13
End Civil Twilight 06:09 14:39
VFR
VFR
MVFR
MVFR
IFR
IFR
LIFR
LIFR
Unknown
Unavailable

Current Weather

METAR Observed VFR
OIFK 092200Z 00000KT CAVOK M02/M08 Q1028 Tue, Feb 9, 2016 @ 22:00 UTC
(26 Minutes ago)
Visual Flight Rules
Wind Visibility Conditions
Calm 10 km or more
  • No significant weather
Temperatures Readings Precipitation
Current Temp
-2°C
28°F
Dewpoint
-8°C
18°F
Humidity 64%
Altimeter 30.35" Hg
Sea Level Pressure 1,028 mb
Field Elevation
982 m
3,222 ft
None Recorded
-
-

CheckWX.com is intended as a tool to help pilots better visualize weather data. It is not intended as a substitute for an official weather briefing obtained from a Flight Service Station. CheckWX.com does not meet the FAA requirements for an official pre-flight weather briefing. Therefore, it's important that pilots still call and obtain an official FSS pre-flight weather briefing.

© 2007-2016 CheckWX.com
22:26:41 UTC